Time;durP1;ratioP1;P1;durP2;ratioP2;P2;SDS_P1;SDS_P2;PMS_P1;PMS_P2;Temp;Humidity;BMP_temperature;BMP_pressure;BME280_temperature;BME280_humidity;BME280_pressure;Samples;Min_cycle;Max_cycle;Signal;HPM_P1;HPM_P2
2021/05/14 00:00:13;;;;;;;6.38;2.30;;;12.80;99.90;;;12.28;92.74;99680.91;4989905;28;20483;-47
2021/05/14 00:02:39;;;;;;;5.00;3.28;;;12.80;99.90;;;12.22;92.82;99678.16;4983236;28;20031;-47
2021/05/14 00:05:08;;;;;;;8.55;4.07;;;12.80;99.90;;;12.17;92.80;99676.06;4983493;28;20517;-49
2021/05/14 00:07:34;;;;;;;10.45;4.40;;;12.80;99.90;;;12.14;93.05;99673.81;4989747;28;20043;-49
2021/05/14 00:10:00;;;;;;;5.97;4.35;;;12.70;99.90;;;12.10;93.45;99667.31;4988639;28;20055;-50
2021/05/14 00:12:26;;;;;;;7.97;4.45;;;12.70;99.90;;;12.09;93.27;99663.06;4989654;28;20041;-53
2021/05/14 00:14:58;;;;;;;5.97;2.97;;;12.70;99.90;;;12.09;93.18;99667.47;4988689;28;20104;-52
2021/05/14 00:17:23;;;;;;;7.88;3.40;;;12.70;99.90;;;12.08;92.87;99663.25;4971600;28;20053;-47
2021/05/14 00:19:50;;;;;;;5.10;3.00;;;12.60;99.90;;;12.08;92.69;99665.84;4989600;28;20565;-49
2021/05/14 00:22:16;;;;;;;3.70;2.85;;;12.60;99.90;;;12.09;92.71;99676.13;4989456;28;20394;-49
2021/05/14 00:24:42;;;;;;;3.85;3.05;;;12.60;99.90;;;12.08;92.37;99674.50;4988801;28;20030;-45
2021/05/14 00:27:08;;;;;;;7.88;3.15;;;12.60;99.90;;;12.08;92.59;99682.34;4989289;28;20129;-50
2021/05/14 00:29:34;;;;;;;9.63;4.18;;;12.60;99.90;;;12.09;92.43;99683.97;4988846;28;20430;-53
2021/05/14 00:32:00;;;;;;;13.88;3.75;;;12.70;99.90;;;12.08;92.60;99689.34;4969731;28;20491;-52
2021/05/14 00:34:26;;;;;;;8.63;3.60;;;12.60;99.90;;;12.07;92.73;99687.72;4982429;28;20038;-53
2021/05/14 00:36:52;;;;;;;6.32;3.58;;;12.60;99.90;;;12.07;92.68;99687.72;4970480;28;20563;-54
2021/05/14 00:39:18;;;;;;;5.53;2.67;;;12.60;99.90;;;12.13;92.31;99695.69;4988790;28;20038;-51
2021/05/14 00:41:44;;;;;;;6.38;2.65;;;12.70;99.90;;;12.15;92.07;99690.28;4989305;28;20054;-51
2021/05/14 00:44:34;;;;;;;4.60;2.17;;;12.70;99.90;;;12.17;92.14;99693.53;4989047;28;20353;-53
2021/05/14 00:47:07;;;;;;;4.88;2.42;;;12.70;99.90;;;12.16;92.20;99697.97;4988574;28;20336;-51
2021/05/14 00:49:39;;;;;;;7.30;3.10;;;12.70;99.90;;;12.18;92.24;99695.97;4988911;28;20470;-53
2021/05/14 00:52:06;;;;;;;6.10;2.80;;;12.70;99.90;;;12.19;92.22;99696.78;4988897;28;20449;-55
2021/05/14 00:54:33;;;;;;;8.80;2.70;;;12.70;99.90;;;12.20;92.31;99695.81;4988789;28;20084;-51
2021/05/14 00:56:59;;;;;;;6.93;3.28;;;12.70;99.90;;;12.15;92.54;99705.97;4988228;28;20145;-48
2021/05/14 00:59:26;;;;;;;7.55;3.65;;;12.80;99.90;;;12.06;93.08;99696.53;4988767;28;20509;-47
2021/05/14 01:01:52;;;;;;;7.43;4.25;;;12.70;99.90;;;11.97;93.50;99693.16;4988735;28;20104;-46
2021/05/14 01:04:18;;;;;;;10.52;4.65;;;12.60;99.90;;;11.91;94.29;99699.88;4989022;28;20406;-51
2021/05/14 01:06:44;;;;;;;12.10;5.18;;;12.50;99.90;;;11.92;94.10;99700.69;4988048;28;20108;-50
2021/05/14 01:09:10;;;;;;;6.22;4.22;;;12.50;99.90;;;11.93;94.21;99697.09;4988613;28;20107;-55
2021/05/14 01:11:36;;;;;;;9.93;5.22;;;12.50;99.90;;;11.94;94.14;99696.94;4988534;28;20117;-54
2021/05/14 01:14:02;;;;;;;8.02;5.25;;;12.50;99.90;;;11.98;94.28;99693.97;4988473;28;20048;-54
2021/05/14 01:16:28;;;;;;;9.07;5.50;;;12.60;99.90;;;12.03;94.17;99702.94;4988669;28;20030;-53
2021/05/14 01:18:55;;;;;;;8.85;5.47;;;12.60;99.90;;;12.04;93.73;99708.97;4988031;28;20046;-54
2021/05/14 01:21:21;;;;;;;8.75;4.88;;;12.60;99.90;;;12.04;93.59;99709.78;4988491;28;20050;-53
2021/05/14 01:23:48;;;;;;;7.13;3.88;;;12.60;99.90;;;12.11;93.23;99705.50;4988400;28;20512;-46
2021/05/14 01:26:17;;;;;;;6.70;4.35;;;12.60;99.90;;;12.12;92.99;99707.13;4987949;28;20038;-53
2021/05/14 01:28:44;;;;;;;6.13;3.85;;;12.60;99.90;;;12.13;92.78;99703.53;4987908;28;20034;-52
2021/05/14 01:31:12;;;;;;;4.65;3.53;;;12.60;99.90;;;12.12;93.02;99699.28;4988317;28;20506;-52
2021/05/14 01:33:38;;;;;;;7.75;3.50;;;12.70;99.90;;;12.13;92.99;99703.53;4988086;28;20046;-54
2021/05/14 01:36:06;;;;;;;7.03;3.00;;;12.70;99.90;;;12.16;92.93;99702.38;4987925;28;20524;-48
2021/05/14 01:38:33;;;;;;;11.05;3.83;;;12.70;99.90;;;12.15;92.93;99705.97;4987872;28;20089;-53
2021/05/14 01:40:59;;;;;;;7.68;3.38;;;12.70;99.90;;;12.15;93.07;99695.50;4988200;28;20113;-51
2021/05/14 01:43:26;;;;;;;7.47;3.78;;;12.70;99.90;;;12.14;93.03;99699.94;4988109;28;20105;-52
2021/05/14 01:45:52;;;;;;;11.15;3.42;;;12.70;99.90;;;12.16;92.58;99705.78;4987538;28;20035;-54
2021/05/14 01:48:18;;;;;;;10.45;3.45;;;12.70;99.90;;;12.17;92.77;99699.59;4988113;28;20031;-49
2021/05/14 01:50:45;;;;;;;8.73;3.90;;;12.70;99.90;;;12.16;92.72;99695.34;4988080;28;20034;-51
2021/05/14 01:53:11;;;;;;;5.55;3.22;;;12.70;99.90;;;12.17;92.33;99696.16;4987901;28;20509;-53
2021/05/14 01:55:38;;;;;;;3.85;2.83;;;12.70;99.90;;;12.14;92.75;99697.31;4987561;28;20497;-52
2021/05/14 01:58:05;;;;;;;9.13;3.92;;;12.70;99.90;;;12.13;92.91;99698.31;4988096;28;20430;-52
2021/05/14 02:00:32;;;;;;;10.13;4.97;;;12.70;99.90;;;12.11;92.76;99697.66;4987937;28;20042;-49
2021/05/14 02:02:59;;;;;;;7.43;4.35;;;12.70;99.90;;;12.12;92.79;99704.50;4988531;28;20032;-49
2021/05/14 02:05:26;;;;;;;8.18;5.80;;;12.70;99.90;;;12.15;92.69;99700.75;4970485;28;20148;-46
2021/05/14 02:07:54;;;;;;;10.45;5.47;;;12.70;99.90;;;12.12;92.47;99701.91;4987854;28;20101;-47
2021/05/14 02:10:21;;;;;;;9.88;6.22;;;12.70;99.90;;;12.11;92.54;99700.28;4987945;28;20462;-52
2021/05/14 02:12:48;;;;;;;8.27;5.38;;;12.70;99.90;;;12.09;92.58;99707.47;4987726;28;20117;-52
2021/05/14 02:15:15;;;;;;;7.45;5.75;;;12.70;99.90;;;12.10;92.47;99703.06;4988046;28;20033;-48
2021/05/14 02:17:41;;;;;;;12.38;5.65;;;12.60;99.90;;;12.09;92.57;99704.84;4988005;28;20034;-50
2021/05/14 02:20:08;;;;;;;11.93;5.15;;;12.60;99.90;;;12.08;92.78;99700.63;4988160;28;20027;-51
2021/05/14 02:22:34;;;;;;;10.70;5.53;;;12.60;99.90;;;12.07;92.59;99698.16;4987378;28;20456;-50
2021/05/14 02:25:01;;;;;;;8.32;5.53;;;12.60;99.90;;;12.08;92.70;99695.38;4988083;28;20168;-53
2021/05/14 02:27:27;;;;;;;9.32;6.15;;;12.60;99.90;;;12.08;92.60;99691.97;4987633;28;20044;-51
2021/05/14 02:29:53;;;;;;;12.73;6.22;;;12.60;99.90;;;12.10;92.53;99698.66;4988122;28;20490;-53
2021/05/14 02:32:21;;;;;;;10.50;7.05;;;12.70;99.90;;;12.10;92.69;99698.66;4987113;28;20048;-49
2021/05/14 02:34:48;;;;;;;10.70;6.63;;;12.70;99.90;;;12.06;92.83;99699.97;4987675;28;20054;-54
2021/05/14 02:37:14;;;;;;;9.20;6.05;;;12.70;99.90;;;12.07;92.77;99701.59;4987612;28;20086;-50
2021/05/14 02:39:40;;;;;;;13.38;5.90;;;12.60;99.90;;;12.08;92.70;99700.63;4974000;28;20057;-52
2021/05/14 02:42:08;;;;;;;6.93;5.20;;;12.60;99.90;;;12.09;92.54;99707.47;5215230;22;20064;-50
2021/05/14 02:44:36;;;;;;;28.90;6.22;;;12.60;99.90;;;12.09;92.59;99696.22;4995365;28;20394;-52
2021/05/14 02:47:02;;;;;;;8.18;4.38;;;12.70;99.90;;;12.08;92.50;99711.06;4991199;28;20030;-46
2021/05/14 02:49:28;;;;;;;9.30;4.70;;;12.70;99.90;;;12.10;92.45;99705.66;4991120;28;20034;-54
2021/05/14 02:51:54;;;;;;;8.73;3.45;;;12.60;99.90;;;12.10;92.60;99709.09;4991115;28;20074;-53
2021/05/14 02:54:20;;;;;;;8.68;4.15;;;12.70;99.90;;;12.11;92.49;99715.94;4990482;28;20065;-51
2021/05/14 02:56:46;;;;;;;7.53;4.10;;;12.70;99.90;;;12.13;92.41;99707.94;4990966;28;20481;-51
2021/05/14 02:59:12;;;;;;;7.18;4.50;;;12.70;99.90;;;12.14;92.41;99710.38;4991001;28;20118;-52
2021/05/14 03:01:38;;;;;;;8.75;3.45;;;12.70;99.90;;;12.13;92.55;99710.53;4990830;28;20042;-54
2021/05/14 03:04:05;;;;;;;5.00;3.65;;;12.70;99.90;;;12.09;92.53;99712.69;4990398;28;20058;-47
2021/05/14 03:06:32;;;;;;;5.35;3.45;;;12.70;99.90;;;12.12;92.60;99717.56;4990747;28;20042;-46
2021/05/14 03:08:58;;;;;;;5.75;3.70;;;12.70;99.90;;;12.13;92.44;99707.94;4990750;28;20466;-46
2021/05/14 03:11:25;;;;;;;5.30;3.70;;;12.70;99.90;;;12.15;92.44;99719.84;4990699;28;20062;-49
2021/05/14 03:13:51;;;;;;;6.88;3.75;;;12.70;99.90;;;12.15;92.37;99717.22;4990694;28;20461;-52
2021/05/14 03:16:17;;;;;;;6.47;3.65;;;12.70;99.90;;;12.13;92.50;99721.81;4990319;28;20034;-52
2021/05/14 03:18:43;;;;;;;5.05;2.60;;;12.70;99.90;;;12.16;92.35;99725.88;4990713;28;20045;-53
2021/05/14 03:21:09;;;;;;;5.70;2.92;;;12.70;99.90;;;12.15;92.87;99727.66;4990570;28;20382;-52
2021/05/14 03:23:34;;;;;;;7.55;3.38;;;12.70;99.90;;;12.15;92.51;99717.22;4990316;28;20100;-50
2021/05/14 03:26:00;;;;;;;8.07;3.80;;;12.70;99.90;;;12.14;92.47;99715.59;4988404;28;20541;-51
2021/05/14 03:28:26;;;;;;;9.25;3.95;;;12.70;99.90;;;12.13;92.43;99726.22;4990650;28;20034;-51
2021/05/14 03:30:52;;;;;;;8.63;4.00;;;12.70;99.90;;;12.11;92.36;99729.00;4990675;28;20512;-54
2021/05/14 03:33:22;;;;;;;9.07;3.90;;;12.70;99.90;;;12.13;92.33;99719.19;4990633;28;20129;-53
2021/05/14 03:35:53;;;;;;;10.10;4.28;;;12.70;99.90;;;12.08;92.58;99721.50;4988483;28;20057;-53
2021/05/14 03:38:22;;;;;;;6.38;3.67;;;12.70;99.90;;;12.10;92.46;99718.72;4990263;28;20496;-54
2021/05/14 03:40:49;;;;;;;6.32;3.67;;;12.70;99.90;;;12.10;92.42;99716.91;4973254;28;20402;-55
2021/05/14 03:43:16;;;;;;;6.85;3.35;;;12.70;99.90;;;12.07;92.69;99722.50;4990318;28;20054;-50
2021/05/14 03:45:41;;;;;;;6.22;3.20;;;12.70;99.90;;;12.07;92.65;99725.09;4990216;28;20030;-51
2021/05/14 03:48:19;;;;;;;7.47;3.45;;;12.60;99.90;;;12.03;92.84;99718.59;4988711;28;20042;-51
2021/05/14 03:50:53;;;;;;;6.20;3.70;;;12.60;99.90;;;12.03;93.18;99723.81;4989117;28;20030;-52
2021/05/14 03:53:21;;;;;;;7.20;3.50;;;12.60;99.90;;;12.03;93.06;99723.81;4990205;28;20043;-47
2021/05/14 03:55:48;;;;;;;6.13;3.53;;;12.60;99.90;;;12.05;92.98;99726.25;4989999;28;20027;-50
2021/05/14 03:58:14;;;;;;;8.52;4.30;;;12.60;99.90;;;12.10;92.85;99731.78;4988042;28;20347;-51
2021/05/14 04:00:40;;;;;;;10.02;4.22;;;12.60;99.90;;;12.13;92.68;99727.03;4988976;28;20138;-53
2021/05/14 04:03:07;;;;;;;11.75;5.60;;;12.60;99.90;;;12.13;92.51;99729.63;4989600;28;20062;-52
2021/05/14 04:05:35;;;;;;;5.75;3.92;;;12.60;99.90;;;12.14;92.73;99717.38;4989567;28;20030;-53
2021/05/14 04:08:01;;;;;;;7.53;4.55;;;12.70;99.90;;;12.13;92.65;99721.81;4989577;28;20421;-47
2021/05/14 04:15:38;;;;;;;5.63;3.78;;;12.70;99.90;;;12.17;92.32;99724.88;4989727;28;20061;-53
2021/05/14 04:18:04;;;;;;;10.60;3.55;;;12.70;99.90;;;12.23;92.17;99724.19;4989082;28;20112;-49
2021/05/14 04:20:30;;;;;;;6.47;4.03;;;12.70;99.90;;;12.22;92.42;99718.16;4989445;28;20561;-50
2021/05/14 04:22:56;;;;;;;5.75;3.17;;;12.80;99.90;;;12.25;92.25;99717.81;4989406;28;20173;-53
2021/05/14 04:25:22;;;;;;;5.07;3.50;;;12.80;99.90;;;12.24;92.24;99721.41;4989455;28;20077;-53
2021/05/14 04:27:48;;;;;;;6.53;3.22;;;12.80;99.90;;;12.29;92.11;99724.28;4989086;28;20045;-53
2021/05/14 04:30:15;;;;;;;7.60;3.28;;;12.80;99.90;;;12.31;92.10;99726.72;4988909;28;20039;-50
2021/05/14 04:32:41;;;;;;;4.78;3.67;;;12.90;99.90;;;12.37;91.93;99730.44;4989232;28;20136;-53
2021/05/14 04:35:07;;;;;;;8.40;3.42;;;12.90;99.90;;;12.46;91.77;99734.63;4989087;28;20034;-52
2021/05/14 04:37:33;;;;;;;4.40;2.97;;;13.00;99.90;;;12.49;91.86;99729.06;4989084;28;20037;-51
2021/05/14 04:39:59;;;;;;;6.75;3.63;;;13.00;99.90;;;12.55;91.98;99731.78;4988676;28;20046;-54
2021/05/14 04:42:25;;;;;;;9.70;3.45;;;13.10;99.90;;;12.53;91.91;99730.34;4988832;28;20113;-52
2021/05/14 04:44:51;;;;;;;6.55;3.00;;;13.10;99.90;;;12.57;91.72;99736.84;4988974;28;20058;-47
2021/05/14 04:47:17;;;;;;;4.03;2.72;;;13.10;99.90;;;12.54;91.57;99737.19;4989095;28;20038;-52
2021/05/14 04:49:43;;;;;;;6.25;3.17;;;13.10;99.90;;;12.51;91.57;99740.16;4988551;28;20122;-53
2021/05/14 04:52:19;;;;;;;5.85;2.40;;;13.10;99.90;;;12.49;91.73;99739.50;4989025;28;20464;-52
2021/05/14 04:54:46;;;;;;;4.47;2.40;;;13.10;99.90;;;12.48;91.84;99748.34;4988716;28;20037;-52
2021/05/14 04:57:13;;;;;;;5.60;2.88;;;13.10;99.90;;;12.44;91.87;99750.47;4988632;28;20069;-48
2021/05/14 04:59:40;;;;;;;8.20;2.60;;;13.10;99.90;;;12.47;91.87;99757.16;4988511;28;20026;-53
2021/05/14 05:02:08;;;;;;;6.95;2.33;;;13.00;99.90;;;12.52;91.67;99754.84;4987586;28;20034;-52
2021/05/14 05:04:38;;;;;;;6.38;2.00;;;13.10;99.90;;;12.53;91.47;99753.84;4987296;28;20322;-52
2021/05/14 05:07:07;;;;;;;9.25;4.20;;;13.10;99.90;;;12.57;91.72;99757.75;4988528;28;20108;-51
2021/05/14 05:09:34;;;;;;;4.82;2.17;;;13.10;99.90;;;12.63;91.59;99757.88;4988364;28;20112;-52
2021/05/14 05:12:00;;;;;;;5.82;2.60;;;13.20;99.90;;;12.69;91.75;99761.59;4988416;28;20035;-53
2021/05/14 05:14:27;;;;;;;4.80;1.90;;;13.20;99.90;;;12.71;92.09;99770.06;4988400;28;20409;-49
2021/05/14 05:16:54;;;;;;;3.83;2.10;;;13.30;99.90;;;12.69;92.31;99766.81;4988539;28;20120;-53
2021/05/14 05:19:20;;;;;;;3.35;1.67;;;13.30;99.90;;;12.70;92.62;99773.66;4988503;28;20486;-53
2021/05/14 05:21:46;;;;;;;3.92;1.77;;;13.30;99.90;;;12.71;92.92;99775.28;4987818;28;20057;-47
2021/05/14 05:24:12;;;;;;;4.35;2.20;;;13.30;99.90;;;12.68;93.25;99773.03;4987814;28;20489;-51
2021/05/14 05:26:38;;;;;;;8.43;1.90;;;13.30;99.90;;;12.66;93.60;99774.19;4988563;28;20523;-47
2021/05/14 05:29:04;;;;;;;5.35;2.47;;;13.30;99.90;;;12.64;93.62;99776.97;4988380;28;20041;-48
2021/05/14 05:31:30;;;;;;;4.68;1.98;;;13.30;99.90;;;12.63;93.79;99783.19;4988321;28;20490;-48
2021/05/14 05:33:56;;;;;;;4.80;1.85;;;13.20;99.90;;;12.63;94.06;99788.41;4987980;28;20042;-51
2021/05/14 05:36:23;;;;;;;9.85;3.20;;;13.20;99.90;;;12.61;94.07;99788.59;4988408;28;20042;-47
2021/05/14 05:38:50;;;;;;;8.93;4.03;;;13.20;99.90;;;12.60;93.89;99786.16;4988039;28;20065;-45
2021/05/14 05:41:17;;;;;;;5.72;2.85;;;13.20;99.90;;;12.57;93.99;99789.91;4988091;28;20113;-52
2021/05/14 05:43:44;;;;;;;3.83;2.53;;;13.20;99.90;;;12.57;93.81;99794.34;4988029;28;20054;-48
2021/05/14 05:46:11;;;;;;;5.00;3.13;;;13.20;99.90;;;12.57;93.90;99796.94;4987470;28;20069;-52
2021/05/14 05:48:38;;;;;;;7.40;3.00;;;13.20;99.90;;;12.54;93.91;99792.88;4988130;28;20031;-52
2021/05/14 05:51:06;;;;;;;9.90;3.55;;;13.20;99.90;;;12.52;94.00;99794.84;4988346;28;20030;-54
2021/05/14 05:53:38;;;;;;;7.93;3.40;;;13.10;99.90;;;12.52;94.14;99801.88;4987842;28;20049;-53
2021/05/14 05:56:05;;;;;;;8.35;2.97;;;13.10;99.90;;;12.62;93.97;99807.69;4987691;28;20049;-55
2021/05/14 05:58:32;;;;;;;9.70;3.22;;;13.20;99.90;;;12.65;93.90;99804.75;5004619;28;20050;-55
2021/05/14 06:00:59;;;;;;;9.07;4.07;;;13.20;99.90;;;12.71;93.87;99817.13;4986856;28;20070;-50
2021/05/14 06:03:25;;;;;;;7.10;3.10;;;13.30;99.90;;;12.74;93.84;99814.16;4987858;28;20433;-56
2021/05/14 06:05:50;;;;;;;3.15;1.40;;;13.30;99.90;;;12.84;93.88;99813.91;4987570;28;20038;-57
2021/05/14 06:08:17;;;;;;;2.85;1.75;;;13.40;99.90;;;12.93;93.67;99811.06;4988299;28;20494;-56
2021/05/14 06:10:44;;;;;;;3.67;1.83;;;13.40;99.90;;;12.96;93.29;99817.72;4987760;28;20030;-56
2021/05/14 06:13:10;;;;;;;5.07;1.73;;;13.50;99.90;;;12.84;93.37;99822.56;4989523;28;20050;-54
2021/05/14 06:15:36;;;;;;;2.35;1.13;;;13.50;99.90;;;12.84;93.68;99822.56;4991775;28;20560;-51
2021/05/14 06:18:03;;;;;;;2.72;1.25;;;13.50;99.90;;;12.97;93.31;99829.81;4991537;28;20069;-54
2021/05/14 06:20:31;;;;;;;2.33;0.50;;;13.50;99.90;;;13.10;92.56;99837.91;4991614;28;20031;-56
2021/05/14 06:22:57;;;;;;;2.40;0.55;;;13.60;99.90;;;13.14;92.26;99833.13;4991933;28;20057;-54
2021/05/14 06:25:22;;;;;;;3.17;0.75;;;13.70;99.90;;;13.14;92.11;99828.72;4991728;28;20442;-48
2021/05/14 06:27:50;;;;;;;4.93;0.60;;;13.70;99.90;;;13.15;92.33;99837.38;4990836;28;20479;-53
2021/05/14 06:30:18;;;;;;;4.28;0.82;;;13.70;99.90;;;13.13;92.16;99834.94;4991748;28;20588;-51
2021/05/14 06:32:44;;;;;;;2.35;0.43;;;13.60;99.90;;;13.06;92.26;99830.56;4974093;28;20481;-53
2021/05/14 06:35:10;;;;;;;2.08;0.40;;;13.60;99.90;;;13.11;92.06;99836.09;4991442;28;20038;-54
2021/05/14 06:37:37;;;;;;;5.63;0.55;;;13.60;99.90;;;13.16;91.88;99836.41;4991034;28;20105;-49
2021/05/14 06:40:08;;;;;;;1.90;0.40;;;13.70;99.90;;;13.06;92.04;99846.25;4991686;28;20038;-55
2021/05/14 06:42:34;;;;;;;1.20;0.60;;;13.60;99.90;;;13.05;92.39;99839.41;4991078;28;20129;-50
2021/05/14 06:45:00;;;;;;;3.67;0.60;;;13.50;99.90;;;13.16;91.79;99846.88;4991354;28;20070;-53
2021/05/14 06:47:26;;;;;;;1.67;0.50;;;13.70;99.90;;;13.19;91.96;99849.13;4990693;28;20037;-54
2021/05/14 06:49:52;;;;;;;3.35;1.60;;;13.70;99.90;;;13.40;91.29;99849.25;4991019;28;20033;-53
2021/05/14 06:52:18;;;;;;;1.92;0.85;;;13.80;99.90;;;13.53;90.90;99849.47;4991148;28;20042;-51
2021/05/14 06:54:43;;;;;;;1.60;0.80;;;14.00;99.90;;;13.58;90.36;99847.13;4991109;28;20043;-53
2021/05/14 06:57:09;;;;;;;4.30;0.88;;;14.00;99.90;;;13.59;90.57;99853.19;4991060;28;20126;-53
2021/05/14 06:59:36;;;;;;;1.70;1.10;;;14.10;99.90;;;13.65;90.27;99854.28;4991170;28;20069;-51
2021/05/14 07:02:03;;;;;;;4.05;0.95;;;14.10;99.90;;;13.72;89.69;99855.16;4990732;28;20049;-50
2021/05/14 07:04:29;;;;;;;3.67;0.70;;;14.20;99.90;;;13.75;89.71;99852.19;4990896;28;20129;-49
2021/05/14 07:06:55;;;;;;;2.05;0.88;;;14.20;99.90;;;13.77;89.49;99861.50;4990734;28;20043;-55
2021/05/14 07:09:21;;;;;;;1.30;0.80;;;14.30;99.90;;;13.79;89.49;99866.53;4990763;28;20030;-54
2021/05/14 07:11:47;;;;;;;1.88;0.77;;;14.30;99.90;;;13.70;89.63;99867.66;4990916;28;20141;-55
2021/05/14 07:14:12;;;;;;;1.98;0.77;;;14.30;99.90;;;13.68;89.97;99861.78;4989995;28;20528;-51
2021/05/14 07:16:38;;;;;;;4.10;1.25;;;14.20;99.90;;;13.76;90.22;99867.72;4990453;28;20034;-51
2021/05/14 07:19:04;;;;;;;2.45;0.70;;;14.30;99.90;;;13.76;89.79;99867.72;4990532;28;20034;-51
2021/05/14 07:21:32;;;;;;;1.73;0.80;;;14.30;99.90;;;13.77;89.41;99871.97;4990616;28;20041;-50
2021/05/14 07:23:57;;;;;;;2.63;0.50;;;14.40;99.90;;;13.78;89.06;99859.69;4990251;28;20035;-56
2021/05/14 07:26:26;;;;;;;3.35;0.70;;;14.40;99.90;;;13.79;88.96;99863.94;4990109;28;20039;-54
2021/05/14 07:28:52;;;;;;;2.33;0.40;;;14.40;99.90;;;13.91;88.38;99862.50;4990362;28;20121;-56
2021/05/14 07:31:18;;;;;;;5.13;1.40;;;14.40;99.90;;;13.86;88.16;99870.06;4990390;28;20101;-55
2021/05/14 07:33:45;;;;;;;9.40;1.38;;;14.30;99.90;;;13.89;88.25;99867.91;4990273;28;20390;-50
2021/05/14 07:36:10;;;;;;;5.20;1.50;;;14.40;99.90;;;13.75;88.58;99867.91;4990355;28;20034;-52
2021/05/14 07:38:36;;;;;;;5.90;1.52;;;14.40;99.90;;;13.75;88.49;99878.38;4971971;28;20379;-53
2021/05/14 07:41:02;;;;;;;5.68;1.55;;;14.40;99.90;;;13.75;88.44;99878.38;4990522;28;20038;-49
2021/05/14 07:43:28;;;;;;;8.75;1.63;;;14.40;99.90;;;13.87;88.44;99879.56;4989908;28;20108;-47
2021/05/14 07:45:54;;;;;;;7.95;2.22;;;14.40;99.90;;;14.21;87.35;99879.00;4989913;28;20382;-54
2021/05/14 07:48:20;;;;;;;8.52;2.35;;;14.60;99.90;;;14.34;86.60;99889.66;4972509;28;20030;-55
2021/05/14 07:50:49;;;;;;;4.15;1.35;;;14.80;99.90;;;14.54;86.41;99889.94;4989688;28;20386;-54
2021/05/14 07:53:15;;;;;;;6.50;1.83;;;15.00;99.90;;;14.82;86.00;99885.59;4970692;28;20038;-50
2021/05/14 07:55:41;;;;;;;2.55;1.27;;;15.30;99.90;;;15.09;85.31;99885.88;4981510;28;20038;-49
2021/05/14 07:58:08;;;;;;;6.05;1.77;;;15.50;99.90;;;15.33;84.70;99888.09;4989951;28;20031;-52
2021/05/14 08:00:34;;;;;;;4.40;0.80;;;15.80;99.90;;;15.62;84.09;99891.56;4989754;28;20034;-57
2021/05/14 08:03:00;;;;;;;1.88;0.50;;;16.10;99.90;;;15.78;83.75;99899.97;4988691;28;20030;-52
2021/05/14 08:05:26;;;;;;;1.23;0.43;;;16.30;99.90;;;15.88;83.89;99897.00;4988721;28;20159;-55
2021/05/14 08:08:19;;;;;;;5.95;0.57;;;16.50;99.90;;;16.01;83.31;99901.56;4986886;28;20046;-57
2021/05/14 08:10:48;;;;;;;1.20;0.60;;;16.60;99.90;;;16.27;82.85;99902.50;4985627;28;20120;-54
2021/05/14 08:13:15;;;;;;;3.13;0.88;;;16.80;99.90;;;16.44;82.31;99910.06;4989822;28;20030;-55
2021/05/14 08:15:41;;;;;;;2.58;0.93;;;17.10;99.90;;;16.64;81.30;99907.47;4990113;28;20034;-51
2021/05/14 08:18:07;;;;;;;2.42;0.30;;;17.20;99.90;;;16.64;81.22;99910.94;4989360;28;20552;-51
2021/05/14 08:20:33;;;;;;;1.38;0.40;;;17.30;99.90;;;16.75;80.94;99910.38;4987799;28;20477;-50
2021/05/14 08:22:59;;;;;;;1.75;0.20;;;17.40;99.90;;;16.69;81.12;99915.63;4989792;28;20038;-50
2021/05/14 08:25:25;;;;;;;1.27;0.20;;;17.40;99.90;;;16.59;81.19;99913.31;4972041;28;20091;-52
2021/05/14 08:27:51;;;;;;;1.15;0.30;;;17.40;99.90;;;16.56;81.42;99921.59;4989685;28;20121;-48
2021/05/14 08:30:17;;;;;;;1.10;0.30;;;17.30;99.90;;;16.48;81.69;99922.63;4989151;28;20026;-50
2021/05/14 08:32:44;;;;;;;2.03;0.30;;;17.30;99.90;;;16.24;82.47;99926.53;4989303;28;20088;-53
2021/05/14 08:35:10;;;;;;;0.88;0.20;;;17.10;99.90;;;16.11;82.39;99931.69;4989034;28;20489;-52
2021/05/14 08:37:39;;;;;;;1.38;0.20;;;16.90;99.90;;;15.89;82.50;99932.78;4989520;28;20061;-54
2021/05/14 08:40:08;;;;;;;2.58;0.30;;;16.70;99.90;;;15.76;83.43;99932.69;4989348;28;20070;-50
2021/05/14 08:42:42;;;;;;;1.00;0.17;;;16.50;99.90;;;15.73;82.98;99943.56;4989008;28;20057;-48
2021/05/14 08:45:13;;;;;;;1.08;0.30;;;16.40;99.90;;;15.62;83.63;99938.84;4989514;28;20045;-53
2021/05/14 08:47:41;;;;;;;1.45;0.20;;;16.40;99.90;;;15.59;83.59;99937.44;4989280;28;20049;-49
2021/05/14 08:50:13;;;;;;;1.10;0.10;;;16.30;99.90;;;15.73;82.83;99943.56;4989359;28;20493;-55
2021/05/14 08:52:42;;;;;;;1.65;0.20;;;16.40;99.90;;;15.85;82.27;99942.06;4989110;28;20038;-50
2021/05/14 08:55:12;;;;;;;0.47;0.10;;;16.40;99.90;;;16.06;81.44;99944.63;4988512;28;20035;-52
2021/05/14 08:57:42;;;;;;;1.05;0.20;;;16.60;99.90;;;16.32;80.68;99948.41;4988664;28;20049;-52
2021/05/14 09:00:11;;;;;;;3.33;0.17;;;16.80;99.90;;;16.52;79.65;99959.84;4988165;28;20042;-50
2021/05/14 09:02:38;;;;;;;3.50;0.22;;;17.00;99.90;;;16.59;79.36;99950.97;4987196;28;20042;-50
2021/05/14 09:05:32;;;;;;;1.67;0.22;;;17.20;99.90;;;16.63;79.25;99951.38;4987315;28;20625;-53
2021/05/14 09:08:00;;;;;;;2.30;0.20;;;17.30;99.90;;;16.63;79.49;99955.81;4988444;28;20481;-51
2021/05/14 09:10:33;;;;;;;0.98;0.20;;;17.40;99.90;;;16.69;79.12;99955.88;4988326;28;20504;-49
2021/05/14 09:12:59;;;;;;;0.63;0.10;;;17.40;99.90;;;16.55;79.12;99965.50;4986326;28;20362;-54
2021/05/14 09:15:29;;;;;;;0.55;0.17;;;17.40;99.90;;;16.72;78.48;99954.69;4984748;28;20034;-54
2021/05/14 09:18:03;;;;;;;1.15;0.20;;;17.50;99.90;;;16.84;76.81;99959.19;4988482;28;20038;-54
2021/05/14 09:20:45;;;;;;;1.73;0.20;;;17.50;99.90;;;16.79;77.02;99956.34;4988423;28;20034;-52
2021/05/14 09:23:20;;;;;;;1.75;0.20;;;17.40;99.90;;;16.66;77.83;99958.09;4988082;28;20527;-53
2021/05/14 09:26:13;;;;;;;1.57;0.10;;;17.40;99.90;;;16.51;77.17;99958.22;4988559;28;20038;-51
2021/05/14 09:28:42;;;;;;;0.28;0.10;;;17.30;99.90;;;16.31;78.07;99957.31;4982285;28;20478;-52
2021/05/14 09:31:08;;;;;;;3.60;0.10;;;17.00;99.90;;;16.45;77.50;99961.63;4988640;28;20030;-52
2021/05/14 09:33:36;;;;;;;1.58;0.65;;;17.10;99.90;;;16.58;77.63;99949.34;4988199;28;20042;-53
2021/05/14 09:36:07;;;;;;;1.67;0.20;;;17.20;99.90;;;16.89;76.39;99950.72;4987848;28;20026;-52
2021/05/14 09:38:44;;;;;;;0.47;0.10;;;17.50;99.90;;;16.95;75.67;99955.19;4988080;28;20030;-52
2021/05/14 09:41:38;;;;;;;0.65;0.08;;;17.60;99.90;;;17.09;73.08;99950.75;4984291;28;20423;-52
2021/05/14 09:44:15;;;;;;;2.15;0.10;;;17.70;99.90;;;17.36;74.51;99952.44;4969981;28;20085;-52
2021/05/14 09:46:48;;;;;;;1.55;0.10;;;17.90;99.90;;;17.24;74.26;99941.66;4972327;28;20134;-53
2021/05/14 09:49:23;;;;;;;1.00;0.15;;;18.00;99.90;;;17.47;73.17;99948.38;4992966;28;20159;-54
2021/05/14 09:52:02;;;;;;;0.30;0.10;;;18.20;99.90;;;17.68;72.36;99955.31;4974523;28;20141;-52
2021/05/14 09:54:35;;;;;;;1.08;0.10;;;18.30;99.90;;;17.74;72.55;99951.84;4990256;28;20050;-51
2021/05/14 09:59:52;;;;;;;0.93;0.10;;;18.60;99.90;;;17.40;69.89;99947.56;4992786;28;20042;-53
2021/05/14 10:02:31;;;;;;;2.55;0.10;;;18.20;99.90;;;17.71;69.45;99945.16;4990995;28;20061;-52
2021/05/14 10:04:59;;;;;;;2.35;0.40;;;18.20;99.90;;;17.65;70.30;99942.50;4984678;28;20038;-51
2021/05/14 10:07:27;;;;;;;1.45;0.10;;;18.20;99.90;;;17.94;69.35;99942.13;4988421;28;20038;-56
2021/05/14 10:10:00;;;;;;;1.50;0.30;;;18.40;99.90;;;17.91;69.75;99942.53;4985804;28;20131;-54
2021/05/14 10:12:27;;;;;;;0.85;0.10;;;18.50;99.90;;;18.11;69.90;99945.94;4992527;28;20034;-55
2021/05/14 10:14:57;;;;;;;1.38;0.20;;;18.80;99.90;;;18.28;69.36;99953.41;4991348;28;20406;-47
2021/05/14 10:17:23;;;;;;;2.33;0.30;;;19.00;99.90;;;18.31;68.64;99955.63;4974743;28;20116;-50
2021/05/14 10:19:52;;;;;;;1.73;0.15;;;19.00;99.90;;;18.52;67.45;99952.69;4989885;28;20045;-52
2021/05/14 10:22:19;;;;;;;1.15;0.20;;;19.00;99.90;;;18.38;68.50;99951.16;4990388;28;20121;-52
2021/05/14 10:24:47;;;;;;;0.82;0.30;;;19.10;99.90;;;18.13;69.09;99948.34;4991695;28;20038;-52
2021/05/14 10:27:27;;;;;;;1.30;0.10;;;19.00;99.90;;;18.10;67.20;99960.13;4991727;28;20038;-54